Time;durP1;ratioP1;P1;durP2;ratioP2;P2;SDS_P1;SDS_P2;PMS_P1;PMS_P2;Temp;Humidity;BMP_temperature;BMP_pressure;BME280_temperature;BME280_humidity;BME280_pressure;Samples;Min_cycle;Max_cycle;Signal;HPM_P1;HPM_P2
2021/09/23 00:01:18;;;;;;;32.95;28.65;;;13.10;99.90;;;;;;2618639;54;20169;-73
2021/09/23 00:04:04;;;;;;;34.28;27.08;;;13.20;99.90;;;;;;2618315;54;20729;-73
2021/09/23 00:06:33;;;;;;;32.80;27.00;;;13.20;99.90;;;;;;2619134;54;20181;-73
2021/09/23 00:09:02;;;;;;;29.60;26.40;;;13.10;99.90;;;;;;2618416;46;20265;-73
2021/09/23 00:11:31;;;;;;;32.58;27.50;;;13.10;99.90;;;;;;2618622;47;20176;-73
2021/09/23 00:14:02;;;;;;;33.63;29.58;;;13.20;99.90;;;;;;2618461;47;20192;-73
2021/09/23 00:16:46;;;;;;;34.42;28.77;;;13.00;99.90;;;;;;2617883;47;20153;-73
2021/09/23 00:19:17;;;;;;;36.63;29.45;;;12.80;99.90;;;;;;2618448;54;20243;-73
2021/09/23 00:21:46;;;;;;;31.52;27.77;;;12.80;99.90;;;;;;2618703;47;20255;-73
2021/09/23 00:24:15;;;;;;;36.22;28.58;;;12.90;99.90;;;;;;2618016;54;20248;-73
2021/09/23 00:26:44;;;;;;;38.33;31.48;;;12.80;99.90;;;;;;2618805;47;20285;-73
2021/09/23 00:29:13;;;;;;;34.80;30.20;;;12.80;99.90;;;;;;2618433;47;20272;-73
2021/09/23 00:31:42;;;;;;;33.45;29.08;;;12.80;99.90;;;;;;2617907;47;20216;-73
2021/09/23 00:34:11;;;;;;;37.35;29.88;;;12.80;99.90;;;;;;2618051;54;20287;-73
2021/09/23 00:36:43;;;;;;;35.13;30.65;;;12.80;99.90;;;;;;2618567;47;20145;-73
2021/09/23 00:39:12;;;;;;;34.25;29.27;;;12.80;99.90;;;;;;2618145;47;20145;-73
2021/09/23 00:41:41;;;;;;;36.70;29.63;;;12.90;99.90;;;;;;2618066;54;20236;-73
2021/09/23 00:44:16;;;;;;;36.75;30.73;;;12.90;99.90;;;;;;2617525;54;20157;-73
2021/09/23 00:46:46;;;;;;;37.47;32.05;;;13.00;99.90;;;;;;2618126;47;20187;-73
2021/09/23 00:49:17;;;;;;;35.40;28.88;;;13.00;99.90;;;;;;2618058;47;20160;-73
2021/09/23 00:51:48;;;;;;;36.20;30.65;;;13.00;99.90;;;;;;2618544;54;20164;-73
2021/09/23 00:54:19;;;;;;;33.92;28.98;;;13.00;99.90;;;;;;2618122;47;20168;-73
2021/09/23 00:56:48;;;;;;;36.10;31.00;;;13.00;99.90;;;;;;2618044;54;20172;-74
2021/09/23 00:59:17;;;;;;;37.10;31.33;;;13.00;99.90;;;;;;2618524;54;20170;-73
2021/09/23 01:01:48;;;;;;;36.78;29.77;;;13.00;99.90;;;;;;2617605;47;20199;-74
2021/09/23 01:04:19;;;;;;;34.83;28.17;;;13.10;99.90;;;;;;2616992;47;20157;-73
2021/09/23 01:06:52;;;;;;;37.10;31.35;;;13.10;99.90;;;;;;2617790;46;20264;-73
2021/09/23 01:09:21;;;;;;;32.80;27.73;;;13.20;99.90;;;;;;2616102;47;20155;-73
2021/09/23 01:11:50;;;;;;;35.90;29.17;;;13.20;99.90;;;;;;2617602;47;20683;-74
2021/09/23 01:14:21;;;;;;;35.28;29.02;;;13.10;99.90;;;;;;2617706;47;20145;-73
2021/09/23 01:16:52;;;;;;;38.80;30.27;;;13.00;99.90;;;;;;2617895;47;20137;-73
2021/09/23 01:19:37;;;;;;;34.47;29.52;;;13.00;99.90;;;;;;2618399;47;20157;-73
2021/09/23 01:22:08;;;;;;;31.55;27.92;;;12.90;99.90;;;;;;2617977;47;20312;-73
2021/09/23 01:25:09;;;;;;;37.97;30.30;;;12.90;99.90;;;;;;2617858;47;20202;-73
2021/09/23 01:27:42;;;;;;;35.95;30.75;;;13.00;99.90;;;;;;2617889;54;20176;-73
2021/09/23 01:30:12;;;;;;;33.95;30.25;;;13.10;99.90;;;;;;2618500;46;20211;-73
2021/09/23 01:32:46;;;;;;;38.30;31.48;;;13.00;99.90;;;;;;2617883;47;20151;-73
2021/09/23 01:35:18;;;;;;;35.58;31.35;;;12.90;99.90;;;;;;2617452;54;20216;-72
2021/09/23 01:37:54;;;;;;;38.33;31.80;;;13.00;99.90;;;;;;2625742;39;20540;-73
2021/09/23 01:40:22;;;;;;;40.25;31.45;;;12.90;99.90;;;;;;2625504;47;20152;-73
2021/09/23 01:42:53;;;;;;;41.10;34.78;;;12.90;99.90;;;;;;2618395;47;20245;-73
2021/09/23 01:45:22;;;;;;;42.53;33.92;;;12.90;99.90;;;;;;2617705;47;20176;-73
2021/09/23 01:47:53;;;;;;;39.75;33.55;;;12.90;99.90;;;;;;2617967;47;20145;-73
2021/09/23 01:50:25;;;;;;;40.65;32.63;;;12.90;99.90;;;;;;2617786;46;20150;-73
2021/09/23 01:53:00;;;;;;;38.15;31.73;;;12.90;99.90;;;;;;2617660;47;20145;-73
2021/09/23 01:55:30;;;;;;;38.38;32.75;;;13.00;99.90;;;;;;2617457;47;20176;-73
2021/09/23 01:58:01;;;;;;;43.38;35.13;;;13.00;99.90;;;;;;2617671;47;20686;-73
2021/09/23 02:00:32;;;;;;;45.55;35.60;;;12.90;99.90;;;;;;2617648;54;20141;-73
2021/09/23 02:03:01;;;;;;;42.63;34.05;;;13.00;99.90;;;;;;2617902;54;20157;-74
2021/09/23 02:05:47;;;;;;;35.95;32.08;;;13.20;99.90;;;;;;2616495;47;20291;-73
2021/09/23 02:08:18;;;;;;;44.78;34.65;;;13.20;99.90;;;;;;2618851;31;20674;-73
2021/09/23 02:10:47;;;;;;;42.42;34.88;;;13.20;99.90;;;;;;2617488;47;20257;-73
2021/09/23 02:13:16;;;;;;;43.38;34.25;;;13.20;99.90;;;;;;2617539;54;20298;-73
2021/09/23 02:15:45;;;;;;;42.95;36.38;;;13.10;99.90;;;;;;2618003;47;20169;-73
2021/09/23 02:18:14;;;;;;;48.72;37.63;;;13.10;99.90;;;;;;2617558;47;20150;-72
2021/09/23 02:20:44;;;;;;;48.63;37.70;;;13.00;99.90;;;;;;2617832;47;20170;-73
2021/09/23 02:23:14;;;;;;;48.58;39.72;;;13.00;99.90;;;;;;2617584;54;20149;-74
2021/09/23 02:25:47;;;;;;;44.30;39.10;;;12.90;99.90;;;;;;2617592;54;20180;-73
2021/09/23 02:28:16;;;;;;;50.17;38.78;;;12.90;99.90;;;;;;2618374;54;20190;-73
2021/09/23 02:30:45;;;;;;;51.45;39.45;;;12.90;99.90;;;;;;2617662;54;20236;-73
2021/09/23 02:33:13;;;;;;;45.78;37.92;;;12.90;99.90;;;;;;2617510;54;20164;-72
2021/09/23 02:35:42;;;;;;;49.90;38.95;;;13.00;99.90;;;;;;2617743;54;20268;-73
2021/09/23 02:38:13;;;;;;;48.97;39.50;;;13.00;99.90;;;;;;2617589;54;20244;-73
2021/09/23 02:40:42;;;;;;;50.45;39.50;;;13.00;99.90;;;;;;2617739;47;20153;-73
2021/09/23 02:43:13;;;;;;;51.08;39.95;;;12.90;99.90;;;;;;2617613;46;20173;-73
2021/09/23 02:45:42;;;;;;;48.15;38.63;;;12.90;99.90;;;;;;2617426;54;20179;-73
2021/09/23 02:48:11;;;;;;;56.17;43.40;;;12.90;99.90;;;;;;2617750;54;20153;-72
2021/09/23 02:50:40;;;;;;;51.42;42.15;;;12.90;99.90;;;;;;2617594;54;20655;-72
2021/09/23 02:53:09;;;;;;;56.50;38.92;;;12.80;99.90;;;;;;2618214;54;20149;-73
2021/09/23 02:55:39;;;;;;;51.08;41.53;;;12.90;99.90;;;;;;2617427;47;20180;-72
2021/09/23 02:58:08;;;;;;;46.33;39.65;;;12.80;99.90;;;;;;2617955;39;20657;-72
2021/09/23 03:00:39;;;;;;;51.92;40.00;;;12.80;99.90;;;;;;2617741;54;20143;-72
2021/09/23 03:03:14;;;;;;;51.53;40.45;;;12.80;99.90;;;;;;2617938;54;20168;-72
2021/09/23 03:05:44;;;;;;;51.67;41.42;;;12.80;99.90;;;;;;2617824;47;20188;-72
2021/09/23 03:08:13;;;;;;;48.38;39.60;;;12.80;99.90;;;;;;2618305;47;20745;-72
2021/09/23 03:10:42;;;;;;;48.38;41.30;;;12.80;99.90;;;;;;2618515;54;20186;-72
2021/09/23 03:13:11;;;;;;;51.00;38.95;;;12.80;99.90;;;;;;2618546;47;20207;-72
2021/09/23 03:15:42;;;;;;;48.47;40.15;;;12.70;99.90;;;;;;2618073;47;20206;-72
2021/09/23 03:18:11;;;;;;;59.95;42.00;;;12.70;99.90;;;;;;2618817;39;20572;-72
2021/09/23 03:20:42;;;;;;;49.88;39.00;;;12.80;99.90;;;;;;2618114;54;20145;-72
2021/09/23 03:23:11;;;;;;;53.10;39.80;;;12.80;99.90;;;;;;2618308;54;20635;-72
2021/09/23 03:25:40;;;;;;;51.97;41.03;;;12.80;99.90;;;;;;2617977;47;20180;-72
2021/09/23 03:28:09;;;;;;;54.03;40.88;;;12.70;99.90;;;;;;2618021;47;20187;-72
2021/09/23 03:30:39;;;;;;;46.75;39.08;;;12.70;99.90;;;;;;2618800;46;20255;-72
2021/09/23 03:33:11;;;;;;;49.17;40.65;;;12.80;99.90;;;;;;2618752;47;20156;-71
2021/09/23 03:35:40;;;;;;;55.17;41.53;;;12.80;99.90;;;;;;2618729;54;20149;-72
2021/09/23 03:38:09;;;;;;;55.53;42.08;;;12.70;99.90;;;;;;2618579;47;20767;-72
2021/09/23 03:40:39;;;;;;;55.08;41.72;;;12.70;99.90;;;;;;2618777;39;20558;-72
2021/09/23 03:43:08;;;;;;;50.38;41.00;;;12.70;99.90;;;;;;2618913;54;20176;-72
2021/09/23 03:45:37;;;;;;;55.00;43.00;;;12.70;99.90;;;;;;2618488;47;20268;-72
2021/09/23 03:48:09;;;;;;;53.58;39.65;;;12.60;99.90;;;;;;2618104;47;20143;-72
2021/09/23 03:50:39;;;;;;;49.00;39.58;;;12.60;99.90;;;;;;2617931;47;20153;-71
2021/09/23 03:53:08;;;;;;;54.15;43.60;;;12.60;99.90;;;;;;2619393;46;20774;-72
2021/09/23 03:55:37;;;;;;;50.70;40.53;;;12.70;99.90;;;;;;2618167;54;20168;-72
2021/09/23 03:58:06;;;;;;;55.08;40.63;;;12.70;99.90;;;;;;2622127;47;20168;-72
2021/09/23 04:00:35;;;;;;;52.08;40.65;;;12.60;99.90;;;;;;2625073;54;20139;-72
2021/09/23 04:03:04;;;;;;;58.67;41.50;;;12.50;99.90;;;;;;2627265;54;20299;-72
2021/09/23 04:05:35;;;;;;;50.35;41.78;;;12.60;99.90;;;;;;2627595;47;20184;-72
2021/09/23 04:08:04;;;;;;;53.03;41.08;;;12.70;99.90;;;;;;2636067;39;20552;-72
2021/09/23 04:10:34;;;;;;;57.30;43.22;;;12.60;99.90;;;;;;2627690;54;20184;-73
2021/09/23 04:13:02;;;;;;;55.50;44.38;;;12.60;99.90;;;;;;2626130;54;20160;-72
2021/09/23 04:15:32;;;;;;;61.72;45.70;;;12.50;99.90;;;;;;2623997;46;20243;-72
2021/09/23 04:18:04;;;;;;;55.47;43.78;;;12.40;99.90;;;;;;2624442;47;20144;-71
2021/09/23 04:20:36;;;;;;;61.92;41.72;;;12.30;99.90;;;;;;2624345;46;20172;-74
2021/09/23 04:23:05;;;;;;;57.50;43.88;;;12.30;99.90;;;;;;2623218;47;20165;-72
2021/09/23 04:25:34;;;;;;;58.35;46.35;;;12.30;99.90;;;;;;2626034;54;20178;-72
2021/09/23 04:28:03;;;;;;;56.45;42.70;;;12.30;99.90;;;;;;2625373;54;20148;-72
2021/09/23 04:30:32;;;;;;;52.25;44.20;;;12.20;99.90;;;;;;2618799;47;20180;-72
2021/09/23 04:33:02;;;;;;;58.88;45.25;;;12.30;99.90;;;;;;2622471;47;20156;-72
2021/09/23 04:35:31;;;;;;;54.92;44.58;;;12.20;99.90;;;;;;2618549;47;20215;-72
2021/09/23 04:38:03;;;;;;;62.03;43.92;;;12.10;99.90;;;;;;2618144;54;20185;-73
2021/09/23 04:40:32;;;;;;;57.63;43.53;;;12.30;99.90;;;;;;2617887;47;20284;-72
2021/09/23 04:43:01;;;;;;;55.70;42.13;;;12.30;99.90;;;;;;2618112;47;20144;-72
2021/09/23 04:45:31;;;;;;;54.22;43.67;;;12.40;99.90;;;;;;2617910;54;20167;-72
2021/09/23 04:48:01;;;;;;;61.08;43.95;;;12.40;99.90;;;;;;2618030;47;20263;-72
2021/09/23 04:50:32;;;;;;;54.25;40.97;;;12.30;99.90;;;;;;2618495;47;20145;-72
2021/09/23 04:53:06;;;;;;;57.25;42.97;;;12.40;99.90;;;;;;2618242;46;20161;-72
2021/09/23 04:55:35;;;;;;;55.30;43.20;;;12.40;99.90;;;;;;2617780;54;20173;-72
2021/09/23 04:58:04;;;;;;;53.15;42.65;;;12.40;99.90;;;;;;2618109;47;20149;-73
2021/09/23 05:00:33;;;;;;;50.33;40.83;;;12.40;99.90;;;;;;2618088;54;20144;-72
2021/09/23 05:03:02;;;;;;;52.10;40.33;;;12.40;99.90;;;;;;2617954;54;20229;-72
2021/09/23 05:05:33;;;;;;;53.88;41.08;;;12.40;99.90;;;;;;2617544;54;20320;-72
2021/09/23 05:08:07;;;;;;;55.05;43.05;;;12.40;99.90;;;;;;2618093;39;20664;-73
2021/09/23 05:10:37;;;;;;;56.78;42.17;;;12.50;99.90;;;;;;2618224;47;20718;-71
2021/09/23 05:13:07;;;;;;;59.60;44.97;;;12.40;99.90;;;;;;2618221;47;20160;-71
2021/09/23 05:15:36;;;;;;;49.63;42.00;;;12.40;99.90;;;;;;2617490;54;20183;-72
2021/09/23 05:18:06;;;;;;;57.83;43.45;;;12.50;99.90;;;;;;2619019;39;20600;-72
2021/09/23 05:20:35;;;;;;;54.83;43.30;;;12.50;99.90;;;;;;2619388;39;20586;-72
2021/09/23 05:23:09;;;;;;;52.42;43.40;;;12.50;99.90;;;;;;2619149;54;20674;-72
2021/09/23 05:25:38;;;;;;;56.13;44.80;;;12.50;99.90;;;;;;2618826;54;20690;-72
2021/09/23 05:28:07;;;;;;;54.38;41.28;;;12.40;99.90;;;;;;2618789;47;20165;-72
2021/09/23 05:30:37;;;;;;;64.82;46.13;;;12.40;99.90;;;;;;2618820;47;20235;-71
2021/09/23 05:33:08;;;;;;;50.30;41.75;;;12.40;99.90;;;;;;2619082;47;20166;-72
2021/09/23 05:35:37;;;;;;;57.22;43.80;;;12.50;99.90;;;;;;2619856;39;20584;-72
2021/09/23 05:38:09;;;;;;;55.15;42.97;;;12.50;99.90;;;;;;2618514;47;20207;-69
2021/09/23 05:40:38;;;;;;;48.53;40.72;;;12.50;99.90;;;;;;2618621;47;20172;-71
2021/09/23 05:43:07;;;;;;;54.28;43.33;;;12.50;99.90;;;;;;2618817;50;20156;-70
2021/09/23 05:45:36;;;;;;;55.60;43.17;;;12.50;99.90;;;;;;2618854;46;20211;-72
2021/09/23 05:48:05;;;;;;;56.25;41.92;;;12.40;99.90;;;;;;2619020;39;20579;-69
2021/09/23 05:50:34;;;;;;;56.15;42.40;;;12.50;99.90;;;;;;2618842;47;20240;-71
2021/09/23 05:53:03;;;;;;;51.28;41.58;;;12.60;99.90;;;;;;2618875;54;20263;-72
2021/09/23 05:55:35;;;;;;;54.40;38.92;;;12.60;99.90;;;;;;2617945;54;20179;-71
2021/09/23 05:58:05;;;;;;;53.03;43.65;;;12.70;99.90;;;;;;2618994;47;20670;-72
2021/09/23 06:00:34;;;;;;;55.53;42.67;;;12.70;99.90;;;;;;2618710;47;20244;-70
2021/09/23 06:03:03;;;;;;;46.75;40.17;;;12.70;99.90;;;;;;2619083;50;20155;-71
2021/09/23 06:05:32;;;;;;;47.17;39.55;;;12.70;99.90;;;;;;2618564;54;20188;-70
2021/09/23 06:08:01;;;;;;;53.20;40.83;;;12.80;99.90;;;;;;2618439;47;20153;-70
2021/09/23 06:10:31;;;;;;;54.03;38.95;;;12.80;99.90;;;;;;2618710;54;20156;-72
2021/09/23 06:13:02;;;;;;;41.22;35.70;;;12.90;99.90;;;;;;2618824;47;20148;-72
2021/09/23 06:15:31;;;;;;;47.55;35.45;;;12.90;99.90;;;;;;2618228;47;20276;-70
2021/09/23 06:18:00;;;;;;;43.35;36.30;;;13.10;99.90;;;;;;2618747;47;20271;-72
2021/09/23 06:20:29;;;;;;;67.18;37.85;;;13.10;99.90;;;;;;2619488;39;20567;-72
2021/09/23 06:22:58;;;;;;;39.83;33.72;;;13.20;99.90;;;;;;2618610;54;20683;-72
2021/09/23 06:25:27;;;;;;;39.53;34.00;;;13.30;99.90;;;;;;2618293;47;20184;-71
2021/09/23 06:27:56;;;;;;;39.33;33.15;;;13.30;99.90;;;;;;2618587;47;20783;-71
2021/09/23 06:30:28;;;;;;;40.67;32.75;;;13.40;99.90;;;;;;2618620;47;20261;-72
2021/09/23 06:32:57;;;;;;;52.40;34.80;;;13.40;99.90;;;;;;2618444;47;20145;-72
2021/09/23 06:35:27;;;;;;;40.70;32.03;;;13.40;99.90;;;;;;2617730;54;20199;-71
2021/09/23 06:37:56;;;;;;;38.05;29.63;;;13.40;99.90;;;;;;2618400;54;20148;-71
2021/09/23 06:40:25;;;;;;;40.47;31.83;;;13.40;99.90;;;;;;2618234;54;20152;-72
2021/09/23 06:42:54;;;;;;;39.95;32.72;;;13.40;99.90;;;;;;2617499;54;20172;-73
2021/09/23 06:45:23;;;;;;;34.03;29.63;;;13.40;99.90;;;;;;2617870;47;20297;-73
2021/09/23 06:47:55;;;;;;;36.83;29.30;;;13.40;99.90;;;;;;2618479;39;20554;-73
2021/09/23 06:50:24;;;;;;;45.20;27.42;;;13.50;99.90;;;;;;2618856;47;20718;-71
2021/09/23 06:52:53;;;;;;;38.80;31.05;;;13.50;99.90;;;;;;2618666;47;20273;-72
2021/09/23 06:55:22;;;;;;;31.15;26.50;;;13.50;99.90;;;;;;2618203;54;20185;-70
2021/09/23 06:57:51;;;;;;;36.08;27.42;;;13.50;99.90;;;;;;2618758;47;20267;-74
2021/09/23 07:00:38;;;;;;;36.35;28.70;;;13.60;99.90;;;;;;2618487;54;20779;-72
2021/09/23 07:03:28;;;;;;;35.35;27.58;;;13.80;99.90;;;;;;2618313;54;20180;-71
2021/09/23 07:06:20;;;;;;;30.33;25.65;;;13.80;99.90;;;;;;2617903;54;20203;-71
2021/09/23 07:08:49;;;;;;;34.42;26.77;;;13.90;99.90;;;;;;2618652;39;20574;-71
2021/09/23 07:11:22;;;;;;;33.33;26.45;;;14.00;99.90;;;;;;2618325;39;20534;-72
2021/09/23 07:13:51;;;;;;;31.65;25.52;;;14.00;99.90;;;;;;2617772;47;20153;-73
2021/09/23 07:16:24;;;;;;;35.05;26.20;;;14.10;99.90;;;;;;2620120;54;20177;-74
2021/09/23 07:18:55;;;;;;;37.85;27.42;;;14.20;99.90;;;;;;2618318;54;20153;-73
2021/09/23 07:21:24;;;;;;;30.83;24.83;;;14.20;99.90;;;;;;2617883;47;20157;-73
2021/09/23 07:23:53;;;;;;;28.55;24.27;;;14.20;99.90;;;;;;2618292;47;20233;-71
2021/09/23 07:26:22;;;;;;;32.20;24.83;;;14.30;99.90;;;;;;2617920;54;20192;-73
2021/09/23 07:28:54;;;;;;;28.90;25.35;;;14.30;99.90;;;;;;2618203;39;20552;-73
2021/09/23 07:31:24;;;;;;;37.33;25.80;;;14.30;99.90;;;;;;2617659;47;20145;-73
2021/09/23 07:33:55;;;;;;;27.17;23.83;;;14.40;99.90;;;;;;2621017;47;20169;-73
2021/09/23 07:36:25;;;;;;;50.22;26.88;;;14.40;99.90;;;;;;2620936;47;20180;-73
2021/09/23 07:38:54;;;;;;;28.08;23.27;;;14.50;99.90;;;;;;2619302;47;20157;-72
2021/09/23 07:41:23;;;;;;;34.28;24.77;;;14.50;99.90;;;;;;2616928;47;20710;-73
2021/09/23 07:43:52;;;;;;;52.28;27.67;;;14.50;99.90;;;;;;2617154;49;20149;-72
2021/09/23 07:46:21;;;;;;;30.27;23.33;;;14.50;99.90;;;;;;2616724;54;20164;-73
2021/09/23 07:48:53;;;;;;;66.75;32.67;;;14.60;99.90;;;;;;2617521;54;20153;-73
2021/09/23 07:51:25;;;;;;;34.63;23.60;;;14.60;99.90;;;;;;2617903;47;20146;-74
2021/09/23 07:53:54;;;;;;;25.83;20.27;;;14.60;99.90;;;;;;2616606;47;20156;-73
2021/09/23 07:56:23;;;;;;;25.83;21.45;;;14.70;99.90;;;;;;2617715;39;20748;-73
2021/09/23 07:58:52;;;;;;;29.00;24.05;;;14.70;99.90;;;;;;2617421;54;20165;-73
2021/09/23 08:01:25;;;;;;;30.13;23.20;;;14.70;99.90;;;;;;2618064;47;20229;-74
2021/09/23 08:03:59;;;;;;;21.92;19.55;;;14.80;99.90;;;;;;2618297;47;20156;-73
2021/09/23 08:06:31;;;;;;;30.15;22.05;;;14.80;99.90;;;;;;2617959;54;20185;-74
2021/09/23 08:09:02;;;;;;;24.73;20.33;;;14.90;99.90;;;;;;2618260;54;20273;-74
2021/09/23 08:11:31;;;;;;;23.55;19.98;;;15.10;99.90;;;;;;2617567;47;20196;-74
2021/09/23 08:14:13;;;;;;;24.33;20.40;;;15.30;99.90;;;;;;2617965;54;20164;-74
2021/09/23 08:16:43;;;;;;;25.48;19.45;;;15.30;99.90;;;;;;2618207;47;20173;-73
2021/09/23 08:19:23;;;;;;;24.20;18.02;;;15.60;99.90;;;;;;2618353;47;20287;-72
2021/09/23 08:22:26;;;;;;;21.92;18.70;;;15.80;99.90;;;;;;2618362;51;20149;-73
2021/09/23 08:24:55;;;;;;;20.38;18.25;;;15.90;99.90;;;;;;2619192;39;20552;-73
2021/09/23 08:27:24;;;;;;;24.50;18.60;;;16.10;99.90;;;;;;2618327;54;20245;-73
2021/09/23 08:29:53;;;;;;;21.38;17.45;;;16.20;99.90;;;;;;2618301;47;20672;-73
2021/09/23 08:32:22;;;;;;;28.63;19.42;;;16.20;99.90;;;;;;2618428;47;20161;-74
2021/09/23 08:34:52;;;;;;;20.85;17.73;;;16.20;99.90;;;;;;2618161;47;20134;-73
2021/09/23 08:37:22;;;;;;;19.08;16.05;;;16.30;99.90;;;;;;2618063;54;20204;-73
2021/09/23 08:39:53;;;;;;;18.85;16.70;;;16.30;99.90;;;;;;2618075;54;20269;-72
2021/09/23 08:42:24;;;;;;;20.75;17.00;;;16.50;99.90;;;;;;2618147;54;20162;-73
2021/09/23 08:44:53;;;;;;;18.02;14.43;;;16.50;99.90;;;;;;2618179;54;20155;-73
2021/09/23 08:47:22;;;;;;;18.25;15.55;;;16.70;99.90;;;;;;2619414;39;20571;-74
2021/09/23 08:49:51;;;;;;;21.02;14.48;;;17.00;99.90;;;;;;2617774;54;20204;-73
2021/09/23 08:52:20;;;;;;;18.40;14.18;;;17.00;99.90;;;;;;2617858;54;20169;-74
2021/09/23 08:54:52;;;;;;;16.65;14.85;;;17.30;99.90;;;;;;2617570;54;20149;-73
2021/09/23 08:57:21;;;;;;;16.80;13.45;;;17.40;99.90;;;;;;2617939;47;20188;-73
2021/09/23 08:59:50;;;;;;;16.20;12.95;;;17.40;99.90;;;;;;2618599;54;20174;-73
2021/09/23 09:02:24;;;;;;;18.15;12.88;;;17.60;99.90;;;;;;2617513;51;20148;-73
2021/09/23 09:05:19;;;;;;;14.07;11.48;;;17.80;99.90;;;;;;2617711;47;20181;-73
2021/09/23 09:08:21;;;;;;;13.27;10.98;;;17.60;99.90;;;;;;2618814;47;20236;-74
2021/09/23 09:11:09;;;;;;;11.70;10.50;;;17.80;99.90;;;;;;2617858;54;20176;-72
2021/09/23 09:13:41;;;;;;;14.00;11.40;;;18.20;99.90;;;;;;2617659;47;20141;-73
2021/09/23 09:16:11;;;;;;;18.38;10.05;;;18.10;99.90;;;;;;2618193;47;20535;-74
2021/09/23 09:18:41;;;;;;;13.18;10.02;;;18.00;99.90;;;;;;2617965;47;20161;-73
2021/09/23 09:21:12;;;;;;;12.32;9.05;;;18.20;99.90;;;;;;2617543;54;20144;-73
2021/09/23 09:23:43;;;;;;;15.35;9.45;;;18.50;99.90;;;;;;2618076;47;20155;-73
2021/09/23 09:26:22;;;;;;;10.15;8.77;;;18.50;99.90;;;;;;2619494;39;20629;-74
2021/09/23 09:28:54;;;;;;;11.30;8.38;;;18.70;99.90;;;;;;2621718;49;20156;-74
2021/09/23 09:31:24;;;;;;;9.63;7.57;;;18.90;99.90;;;;;;2617642;54;20157;-74
2021/09/23 09:33:59;;;;;;;8.43;7.60;;;19.10;99.90;;;;;;2617994;54;20180;-74
2021/09/23 09:36:33;;;;;;;9.32;6.68;;;19.00;99.90;;;;;;2617687;46;20175;-72
2021/09/23 09:39:05;;;;;;;9.23;6.60;;;19.10;99.90;;;;;;2617617;54;20151;-74
2021/09/23 09:41:43;;;;;;;12.98;7.82;;;19.20;99.90;;;;;;2618855;47;20157;-74
2021/09/23 09:44:14;;;;;;;9.38;8.48;;;18.80;99.90;;;;;;2618720;54;20687;-72
2021/09/23 09:46:47;;;;;;;11.23;8.65;;;18.70;99.90;;;;;;2619620;47;20201;-73
2021/09/23 09:49:19;;;;;;;20.08;8.18;;;18.80;99.90;;;;;;2621192;47;20252;-74
2021/09/23 09:51:51;;;;;;;11.18;7.60;;;18.90;99.90;;;;;;2618944;47;20702;-72
2021/09/23 09:54:22;;;;;;;11.27;7.88;;;19.10;99.90;;;;;;2618987;39;20574;-73
2021/09/23 09:57:02;;;;;;;8.77;7.60;;;19.00;99.90;;;;;;2618956;54;20177;-74
2021/09/23 09:59:34;;;;;;;10.85;7.60;;;19.10;99.90;;;;;;2618026;47;20668;-72
2021/09/23 10:02:05;;;;;;;9.25;7.93;;;19.30;99.90;;;;;;2621600;46;20161;-73
2021/09/23 10:04:36;;;;;;;11.13;7.43;;;19.20;99.90;;;;;;2620967;47;20708;-73
2021/09/23 10:07:07;;;;;;;8.73;6.88;;;19.20;99.90;;;;;;2620429;54;20188;-72
2021/09/23 10:09:41;;;;;;;8.43;7.15;;;19.10;99.90;;;;;;2618864;47;20232;-72
2021/09/23 10:12:15;;;;;;;9.00;7.13;;;19.20;99.90;;;;;;2622026;54;20159;-72
2021/09/23 10:14:47;;;;;;;10.93;7.00;;;19.00;99.90;;;;;;2618599;47;20226;-73
2021/09/23 10:17:17;;;;;;;16.40;8.07;;;19.20;99.90;;;;;;2617536;54;20730;-75
2021/09/23 10:19:46;;;;;;;9.95;7.07;;;19.40;99.90;;;;;;2618442;47;20153;-73
2021/09/23 10:22:17;;;;;;;10.38;7.00;;;19.50;99.90;;;;;;2618684;47;20706;-74
2021/09/23 10:24:49;;;;;;;6.38;5.30;;;19.80;99.90;;;;;;2618966;54;20145;-76
2021/09/23 10:30:03;;;;;;;10.98;6.65;;;20.20;99.90;;;;;;2617830;54;20168;-73
2021/09/23 10:32:33;;;;;;;7.25;6.03;;;20.20;99.90;;;;;;2620658;54;20164;-74
2021/09/23 10:35:03;;;;;;;7.38;5.90;;;20.30;99.90;;;;;;2618072;47;20141;-73
2021/09/23 10:37:34;;;;;;;7.10;5.43;;;20.50;99.90;;;;;;2617884;54;20177;-73
2021/09/23 10:40:06;;;;;;;7.18;5.57;;;20.70;99.90;;;;;;2618042;51;20157;-73
2021/09/23 10:42:39;;;;;;;8.18;5.45;;;20.60;99.90;;;;;;2624961;47;20153;-75
2021/09/23 10:45:11;;;;;;;11.93;4.50;;;20.60;99.90;;;;;;2621954;54;20172;-72
2021/09/23 10:47:40;;;;;;;6.05;5.15;;;20.70;99.90;;;;;;2617814;54;20168;-73
2021/09/23 10:50:11;;;;;;;4.97;4.45;;;21.10;99.90;;;;;;2617434;47;20150;-73
2021/09/23 10:52:41;;;;;;;4.78;4.28;;;21.20;99.90;;;;;;2618514;39;20592;-73
2021/09/23 10:55:12;;;;;;;7.15;5.80;;;21.30;99.90;;;;;;2617729;54;20711;-74
2021/09/23 10:57:43;;;;;;;9.45;4.15;;;21.40;99.90;;;;;;2617726;47;20153;-75
2021/09/23 11:00:15;;;;;;;5.93;4.93;;;21.50;99.90;;;;;;2617791;54;20735;-74
2021/09/23 11:02:44;;;;;;;6.80;5.22;;;21.50;99.90;;;;;;2617701;54;20527;-73
2021/09/23 11:05:27;;;;;;;5.25;4.63;;;21.60;99.90;;;;;;2617524;47;20173;-74
2021/09/23 11:07:56;;;;;;;5.88;4.85;;;22.00;99.90;;;;;;2620075;47;20156;-76
2021/09/23 11:10:26;;;;;;;6.00;5.32;;;22.50;99.90;;;;;;2621328;39;20940;-75
2021/09/23 11:13:00;;;;;;;8.05;6.45;;;22.20;99.90;;;;;;2620941;47;20161;-75
2021/09/23 11:15:30;;;;;;;33.83;6.72;;;21.90;99.90;;;;;;2619476;47;20161;-75
2021/09/23 11:18:03;;;;;;;8.27;6.10;;;21.90;99.90;;;;;;2622810;47;20149;-75
2021/09/23 11:20:34;;;;;;;6.53;5.75;;;21.80;99.90;;;;;;2620696;54;20160;-75
2021/09/23 11:23:06;;;;;;;11.43;5.78;;;21.60;99.90;;;;;;2620003;47;20268;-75
2021/09/23 11:25:39;;;;;;;6.38;5.22;;;21.80;99.90;;;;;;2619949;47;20234;-75
2021/09/23 11:28:11;;;;;;;8.32;6.18;;;21.60;99.90;;;;;;2620830;54;20159;-75
2021/09/23 11:30:41;;;;;;;8.07;6.88;;;21.80;99.90;;;;;;2623896;47;20276;-75
2021/09/23 11:33:12;;;;;;;8.77;6.90;;;21.50;99.90;;;;;;2620755;54;20192;-74
2021/09/23 11:35:43;;;;;;;10.55;6.68;;;21.40;99.90;;;;;;2621564;54;20215;-75
2021/09/23 11:38:14;;;;;;;10.45;6.90;;;21.50;99.90;;;;;;2622086;47;20205;-75
2021/09/23 11:40:45;;;;;;;9.88;7.47;;;21.30;99.90;;;;;;2623772;47;20245;-75
2021/09/23 11:43:22;;;;;;;9.60;7.15;;;21.30;99.90;;;;;;2629585;54;20208;-75
2021/09/23 11:45:54;;;;;;;10.82;7.25;;;21.30;99.90;;;;;;2629848;46;20200;-75
2021/09/23 11:48:27;;;;;;;11.07;7.95;;;21.30;99.90;;;;;;2629340;46;20313;-75
2021/09/23 11:51:00;;;;;;;9.43;6.70;;;21.20;99.90;;;;;;2629035;54;20187;-74
2021/09/23 11:53:32;;;;;;;10.10;7.25;;;21.30;99.90;;;;;;2628856;54;20153;-75
2021/09/23 11:56:04;;;;;;;11.05;7.03;;;21.40;99.90;;;;;;2628515;47;20181;-76
2021/09/23 11:58:47;;;;;;;9.52;7.35;;;21.50;99.90;;;;;;2627460;47;20176;-75
2021/09/23 12:01:22;;;;;;;10.40;6.32;;;21.80;99.90;;;;;;2628886;47;20754;-75
2021/09/23 12:03:53;;;;;;;10.85;7.72;;;21.80;99.90;;;;;;2627707;54;20145;-75
2021/09/23 12:06:25;;;;;;;12.57;9.18;;;21.50;99.90;;;;;;2622411;39;20571;-76
2021/09/23 12:09:13;;;;;;;7.80;6.78;;;21.50;99.90;;;;;;2622039;47;20157;-75
2021/09/23 12:11:43;;;;;;;10.80;8.18;;;21.50;99.90;;;;;;2622235;46;20172;-76
2021/09/23 12:14:22;;;;;;;9.27;7.97;;;21.30;99.90;;;;;;2621969;54;20153;-76
2021/09/23 17:08:04;;;;;;;6.60;5.35;;;;;;;;;;2620406;46;20228;-74
2021/09/23 17:10:34;;;;;;;10.27;5.43;;;18.00;99.90;;;;;;2623522;54;20150;-75
2021/09/23 17:13:03;;;;;;;5.40;4.80;;;18.00;99.90;;;;;;2622268;54;20144;-75
2021/09/23 17:15:32;;;;;;;8.82;4.47;;;18.10;99.90;;;;;;2622482;54;20145;-74
2021/09/23 17:18:02;;;;;;;4.70;4.28;;;17.90;99.90;;;;;;2618793;47;20710;-73
2021/09/23 17:20:31;;;;;;;4.85;3.90;;;17.90;99.90;;;;;;2620380;47;20154;-75
2021/09/23 17:23:02;;;;;;;3.75;3.45;;;17.90;99.90;;;;;;2621548;47;20205;-73
2021/09/23 17:25:32;;;;;;;6.25;3.65;;;17.90;99.90;;;;;;2618560;49;20133;-73
2021/09/23 17:28:01;;;;;;;4.78;4.32;;;17.90;99.90;;;;;;2618446;47;20157;-74
2021/09/23 17:30:31;;;;;;;12.95;9.77;;;17.90;99.90;;;;;;2618670;54;20149;-73
2021/09/23 17:33:02;;;;;;;12.57;6.82;;;18.00;99.90;;;;;;2618675;54;20680;-72
2021/09/23 17:35:31;;;;;;;8.45;4.47;;;18.00;99.90;;;;;;2619898;54;20703;-74
2021/09/23 17:38:03;;;;;;;6.28;4.03;;;17.90;99.90;;;;;;2623045;54;20253;-77
2021/09/23 17:40:32;;;;;;;7.45;5.30;;;17.90;99.90;;;;;;2619630;54;20161;-72
2021/09/23 17:43:01;;;;;;;5.30;3.50;;;18.10;99.90;;;;;;2618822;54;20184;-73
2021/09/23 17:45:30;;;;;;;5.70;3.67;;;18.00;99.90;;;;;;2619381;47;20157;-74